2 juillet 2022

Temps Code Temps Temp. Vue Base cloud Vent METAR/SPECI
7:00 pm
V
57 °F 20 mi 5.000 ft 360° 360° 7 kt METAR CYEG 030100Z 36007KT 20SM SCT014 BKN050 BKN070 14/11 A3008 RMK CU3SC3AC1 SLP198 DENSITY ALT 2700FT
6:22 pm
V
57 °F 20 mi 4.500 ft 350° 350° 7 kt METAR CYEG 030022Z 35007KT 20SM SCT014 BKN045 14/11 A3009 RMK CU4SC3 SLP201 DENSITY ALT 2600FT
6:00 pm
M
57 °F 20 mi 1.400 ft 340° 340° 6 kt METAR CYEG 030000Z 34006KT 20SM BKN014 BKN045 BKN070 14/11 A3009 RMK CU5SC2AC1 AC TR SLP201 DENSITY ALT 2700FT
5:00 pm
M
59 °F 20 mi 1.400 ft 020° 020° 6 kt METAR CYEG 022300Z 02006KT 320V030 20SM BKN014 BKN065 15/11 A3009 RMK CU5SC2 SLP201 DENSITY ALT 2700FT
4:00 pm
M
57 °F 20 mi 1.400 ft 330° 330° 7 kt METAR CYEG 022200Z 33007KT 20SM BKN014 BKN060 14/11 A3009 RMK CU6SC1 SLP203 DENSITY ALT 2700FT
3:33 pm
M
57 °F 20 mi 1.000 ft 340° 340° 5 kt METAR CYEG 022133Z 34005KT 20SM BKN010 BKN045 14/11 A3010 RMK CU6SC1 SLP206 DENSITY ALT 2600FT
3:00 pm
I
54 °F 20 mi 600 ft 340° 340° 6 kt METAR CYEG 022100Z 34006KT 300V010 20SM BKN006 OVC050 12/11 A3010 RMK CU7SC1 SLP208 DENSITY ALT 2400FT
2:44 pm
I
54 °F 20 mi 500 ft 350° 350° 5 kt METAR CYEG 022044Z 35005KT 290V360 20SM BKN005 BKN052 OVC110 12/11 A3010 RMK CU5SC2AC1 SLP208 DENSITY ALT 2400FT
2:34 pm
V
54 °F 20 mi 5.500 ft 310° 310° 3 kt METAR CYEG 022034Z 31003KT 20SM FEW007 SCT025 BKN055 OVC110 12/11 A3010 RMK CU2SC2SC2AC2 SLP209 DENSITY ALT 2400FT
2:22 pm
M
52 °F 15 mi 2.200 ft 330° 330° 4 kt METAR CYEG 022022Z 33004KT 15SM -RA SCT007 BKN022 BKN060 OVC100 11/11 A3010 RMK CU4SC1SC2AC1 SLP208
2:00 pm
I
52 °F 5 mi 700 ft 290° 290° 4 kt METAR CYEG 022000Z 29004KT 230V300 5SM -RA BR BKN007 OVC055 11/11 A3011 RMK CU6SC2 SLP211
1:45 pm
I
52 °F 5 mi 500 ft 300° 300° 3 kt METAR CYEG 021945Z 30003KT 180V320 5SM -RA BR BKN005 OVC050 11/11 A3011 RMK CU6SC2 SLP212
1:38 pm
L
52 °F 3 mi 400 ft Var Var 2 kt METAR CYEG 021938Z VRB02KT 3SM RA BR BKN004 OVC050 11/11 A3011 RMK SC6SC2 CU ASOCTD LWR SC SLP211
1:23 pm
I
52 °F 3 mi 500 ft Var Var 2 kt METAR CYEG 021923Z VRB02KT 3SM RA BR BKN005 OVC050 11/11 A3010 RMK SC5SC3 CU ASOCTD LWR SC SLP209
1:14 pm
I
52 °F 2½ mi 1.500 ft 200° 200° 4 kt METAR CYEG 021914Z 20004KT 2 1/2SM RA BR SCT007 BKN015 OVC055 11/11 A3010 RMK SC3SC2SC3 CU ASOCTD LWR SC SLP206
1:00 pm
I
52 °F 2½ mi 800 ft Var 000° 0 kt METAR CYEG 021900Z 00000KT 2 1/2SM RA BR BKN008 BKN015 OVC055 11/11 A3010 RMK SC5SC2SC1 CU ASOCTD LWR SC SLP209
12:33 pm
I
52 °F 2½ mi 800 ft 250° 250° 3 kt METAR CYEG 021833Z 25003KT 220V280 2 1/2SM RA BR OVC008 11/11 A3011 RMK SC8 SLP210
12:25 pm
I
52 °F 3 mi 700 ft Var Var 2 kt METAR CYEG 021825Z VRB02KT 3SM RA BR BKN007 OVC013 11/11 A3011 RMK SC6SC2 CU ASOCTD LWR SC SLP209
12:00 pm
I
54 °F 10 mi 700 ft 030° 030° 3 kt METAR CYEG 021800Z 03003KT 010V080 10SM -RA BKN007 OVC015 12/10 A3010 RMK CU7SC1 BR SLP207 DENSITY ALT 2400FT
11:20 am
I
54 °F 4 mi 600 ft 080° 080° 3 kt METAR CYEG 021720Z 08003KT 050V140 4SM -RA BR BKN006 OVC015 12/11 A3010 RMK SC5SC3 CU ASOCTD LWR SC SLP205 DENSITY ALT 2400FT
11:11 am
M
52 °F 5 mi 1.400 ft 120° 120° 4 kt METAR CYEG 021711Z 12004KT 5SM RA BR SCT006 BKN014 OVC022 11/10 A3009 RMK CF4SC3SC1 SLP205
11:00 am
M
52 °F 10 mi 1.400 ft 140° 140° 5 kt METAR CYEG 021700Z CCA 14005KT 10SM -RA SCT008 OVC014 11/10 A3009 RMK CF4SC4 VIS SE 4 BR SLP205
10:45 am
M
52 °F 10 mi 1.300 ft 120° 120° 6 kt METAR CYEG 021645Z 12006KT 10SM -RA SCT008 BKN013 OVC022 11/10 A3009 RMK CF3SC4SC1 BR SLP205
10:25 am
I
52 °F 10 mi 800 ft 140° 140° 4 kt METAR CYEG 021625Z CCA 14004KT 10SM -RA BKN008 OVC015 11/10 A3009 RMK SC6SC2 BR SLP204
10:00 am
M
52 °F 10 mi 1.600 ft 130° 130° 6 kt METAR CYEG 021600Z 13006KT 10SM -RA SCT007 BKN016 OVC065 11/10 A3009 RMK CF3SC3SC2 BR SLP205
9:39 am
V
52 °F 10 mi 6.500 ft 120° 120° 8 kt METAR CYEG 021539Z 12008KT 10SM -RA FEW008 SCT014 OVC065 11/10 A3009 RMK SF1SC3SC4 BR SLP204
9:00 am
M
52 °F 10 mi 1.200 ft 100° 100° 6 kt METAR CYEG 021500Z 10006KT 10SM -RA SCT008 OVC012 11/10 A3010 RMK SF3SC5 BR SLP206
8:29 am
M
52 °F 12 mi 1.100 ft 100° 100° 9 kt METAR CYEG 021429Z 10009KT 12SM -RA SCT008 OVC011 11/10 A3010 RMK SF4SC4 SLP205
8:00 am
I
52 °F 10 mi 900 ft 100° 100° 6 kt METAR CYEG 021400Z 10006KT 10SM -RA BKN009 OVC015 11/10 A3010 RMK SC7SC1 BR SLP204 DENSITY ALT 2400FT
7:09 am
I
52 °F 12 mi 800 ft 130° 130° 6 kt METAR CYEG 021309Z 13006KT 12SM BKN008 OVC016 11/11 A3009 RMK SC6SC2 SLP201
7:00 am
M
52 °F 15 mi 1.600 ft 110° 110° 5 kt METAR CYEG 021300Z 11005KT 15SM -RA SCT008 OVC016 11/11 A3009 RMK SF3SC5 SLP200
6:31 am
M
52 °F 15 mi 1.500 ft 110° 110° 5 kt METAR CYEG 021231Z CCA 11005KT 15SM -RA FEW007 FEW011 OVC015 11/11 A3009 RMK SF1SC1SC6 SLP201
6:18 am
M
52 °F 12 mi 1.500 ft 130° 130° 7 kt METAR CYEG 021218Z 13007KT 12SM -RA FEW011 OVC015 11/11 A3009 RMK SC2SC6 SLP201
6:00 am
I
52 °F 6 mi 900 ft 120° 120° 7 kt METAR CYEG 021200Z 12007KT 6SM -RA BR BKN009 OVC013 11/11 A3010 RMK SC5SC3 SLP202
5:00 am
I
54 °F 10 mi 800 ft 020° 020° 5 kt METAR CYEG 021100Z 02005KT 10SM -RA OVC008 12/11 A3010 RMK SC8 SLP200 DENSITY ALT 2400FT
4:00 am
I
54 °F 10 mi 800 ft 020° 020° 5 kt METAR CYEG 021000Z 02005KT 10SM -RA OVC008 12/11 A3010 RMK SC8 SLP200 DENSITY ALT 2400FT
3:27 am
I
54 °F 15 mi 800 ft 020° 020° 4 kt METAR CYEG 020927Z 02004KT 15SM -RA BKN008 OVC012 12/11 A3010 RMK SC6SC2 SLP200 DENSITY ALT 2400FT
3:00 am
M
54 °F 15 mi 1.200 ft 060° 060° 5 kt METAR CYEG 020900Z 06005KT 15SM -RA SCT009 OVC012 12/11 A3010 RMK SC4SC4 SLP199 DENSITY ALT 2400FT
2:00 am
M
54 °F 15 mi 1.200 ft 070° 070° 5 kt METAR CYEG 020800Z 07005KT 15SM -RA FEW009 OVC012 12/11 A3010 RMK SF2SC6 SLP199 DENSITY ALT 2400FT
1:45 am
M
54 °F 15 mi 1.300 ft 060° 060° 6 kt METAR CYEG 020745Z 06006KT 15SM -RA FEW009 OVC013 12/11 A3010 RMK SF2SC6 SLP199 DENSITY ALT 2400FT
1:32 am
M
54 °F 15 mi 1.300 ft 060° 060° 7 kt METAR CYEG 020732Z 06007KT 15SM -SHRA FEW009 OVC013 12/11 A3010 RMK SF2SC6 CVCTV CLD EMBD SLP198 DENSITY ALT 2400FT
1:00 am
M
54 °F 15 mi 1.700 ft 060° 060° 7 kt METAR CYEG 020700Z 06007KT 15SM -SHRA OVC017 12/11 A3009 RMK SC8 CVCTV CLD EMBD SLP198 DENSITY ALT 2500FT
12:23 am
M
55 °F 15 mi 2.200 ft 060° 060° 9 kt METAR CYEG 020623Z 06009KT 15SM -SHRA SCT015 OVC022 13/11 A3010 RMK SC3SC5 CVCTV CLD EMBD SLP199 DENSITY ALT 2500FT
12:00 am
M
55 °F 20 mi 2.200 ft 060° 060° 8 kt METAR CYEG 020600Z 06008KT 20SM FEW017 OVC022 13/11 A3009 RMK SC1SC7 SLP197 DENSITY ALT 2500FT

1 juillet 2022

Temps Code Temps Temp. Vue Base cloud Vent METAR/SPECI
11:00 pm
M
55 °F 20 mi 2.000 ft 060° 060° 9 kt METAR CYEG 020500Z 06009KT 20SM BKN020 OVC025 13/11 A3009 RMK SC7CU1 SLP196 DENSITY ALT 2600FT
10:40 pm
M
55 °F 20 mi 2.000 ft 030° 030° 9 kt METAR CYEG 020440Z 03009KT 20SM BKN020 OVC025 13/11 A3009 RMK SC6CU2 SLP196 DENSITY ALT 2600FT
10:00 pm
V
55 °F 15 mi 7.500 ft 030° 030° 8 kt METAR CYEG 020400Z 03008KT 15SM -SHRA FEW025 OVC075 13/11 A3009 RMK CU2AC6 SLP195 DENSITY ALT 2600FT
9:53 pm
V
55 °F 15 mi 7.500 ft 020° 020° 9 kt METAR CYEG 020353Z 02009KT 15SM -SHRA FEW025 OVC075 13/11 A3008 RMK CU2AC6 SLP194 DENSITY ALT 2600FT
9:00 pm
V
59 °F 15 mi 6.000 ft 010° 010° 8 kt METAR CYEG 020300Z 01008KT 15SM FEW025 BKN060 OVC160 15/12 A3008 RMK CU2SC5AS1 SLP192 DENSITY ALT 2800FT
8:00 pm
V
59 °F 15 mi 16.000 ft 020° 020° 8 kt METAR CYEG 020200Z 02008KT 15SM FEW025 FEW050 BKN160 15/12 A3005 RMK CU1SC2AS5 CU TR SLP186 DENSITY ALT 2900FT
7:00 pm
V
63 °F 15 mi 9.000 ft 040° 040° 10 - 15 kt METAR CYEG 020100Z 04010G15KT 15SM FEW025 SCT050 BKN090 BKN250 17/12 A3003 RMK CU2SC2AC1CI2 SLP179 DENSITY ALT 3100FT
6:00 pm
V
64 °F 15 mi 4.500 ft 040° 040° 15 kt METAR CYEG 020000Z 04015KT 15SM SCT025 BKN045 BKN090 BKN250 18/12 A3003 RMK CU3SC2AC1CI2 AC TR TCU ASOCTD DIST W-NW SLP180 DENSITY ALT 3100FT
5:00 pm
M
66 °F 15 mi 2.500 ft 030° 030° 13 - 19 kt METAR CYEG 012300Z 03013G19KT 15SM BKN025 BKN090 BKN250 19/13 A3003 RMK CU5AC1CI1 AC TR SLP177 DENSITY ALT 3300FT
4:00 pm
V
68 °F 15 mi 25.000 ft 020° 020° 10 - 16 kt METAR CYEG 012200Z 02010G16KT 15SM SCT025 SCT090 BKN250 20/14 A3001 RMK CU3AC1CI1 SLP171 DENSITY ALT 3400FT
3:00 pm
V
68 °F 15 mi 25.000 ft 340° 340° 12 - 17 kt METAR CYEG 012100Z 34012G17KT 15SM FEW025 FEW090 BKN250 20/14 A3000 RMK CU1AC1CI4 TCU ASOCTD DIST NW QUAD SLP167 DENSITY ALT 3400FT
2:00 pm
V
70 °F 15 mi - 010° 010° 11 kt METAR CYEG 012000Z 01011KT 15SM FEW030 FEW090 SCT250 21/13 A3000 RMK CU1AC1CI1 ACC ASOCTD SLP165 DENSITY ALT 3500FT
1:00 pm
V
68 °F 15 mi 10.000 ft 020° 020° 12 kt METAR CYEG 011900Z 02012KT 15SM SCT025 BKN100 BKN250 20/14 A3000 RMK CU3AC2CI1 SLP165 DENSITY ALT 3400FT
12:00 pm
V
68 °F 15 mi 25.000 ft 360° 360° 14 - 19 kt METAR CYEG 011800Z 36014G19KT 15SM SCT025 SCT090 BKN250 20/14 A2998 RMK CU3AC1CI1 SLP159 DENSITY ALT 3500FT
11:00 am
V
66 °F 15 mi - 310° 310° 10 kt METAR CYEG 011700Z 31010KT 260V320 15SM FEW022 FEW090 FEW250 19/14 A2997 RMK CU1AC1CI1 CU TR ACC ASOCTD DIST NW SLP153 DENSITY ALT 3400FT
10:00 am
V
64 °F 15 mi - Var Var 2 kt METAR CYEG 011600Z VRB02KT 15SM FEW090 FEW250 18/13 A2995 RMK ACC1CI1 ACC TR ACC DIST NW SLP146 DENSITY ALT 3300FT
9:00 am
V
63 °F 15 mi - 250° 250° 5 kt METAR CYEG 011500Z 25005KT 210V290 15SM FEW080 FEW250 17/12 A2996 RMK ACC1CI1 ACC TR CI TR ACC DIST W SLP148 DENSITY ALT 3100FT
8:00 am
V
57 °F 15 mi - 320° 320° 3 kt METAR CYEG 011400Z 32003KT 220V350 15SM FEW080 FEW170 FEW250 14/12 A2997 RMK ACC1AC1CI1 ACC TR AC TR ACC DIST W SLP153 DENSITY ALT 2800FT
7:00 am
V
52 °F 20 mi - Var 000° 0 kt METAR CYEG 011300Z 00000KT 20SM SKC 11/10 A2996 RMK SLP151 DENSITY ALT 2400FT
6:00 am
V
50 °F 20 mi - 180° 180° 3 kt METAR CYEG 011200Z 18003KT 20SM FEW100 FEW240 10/09 A2996 RMK AC1CI1 AC TR SLP153
5:00 am
V
50 °F 20 mi - 190° 190° 4 kt METAR CYEG 011100Z 19004KT 20SM FEW100 FEW240 10/09 A2997 RMK AC1CI2 AC TR SLP157
4:00 am
V
52 °F 20 mi - 180° 180° 8 kt METAR CYEG 011000Z 18008KT 20SM FEW240 11/09 A2998 RMK CI2 SLP157 DENSITY ALT 2400FT
3:00 am
V
50 °F 20 mi - 180° 180° 6 kt METAR CYEG 010900Z 18006KT 20SM SKC 10/09 A2999 RMK SLP163
2:00 am
V
50 °F 20 mi - 180° 180° 5 kt METAR CYEG 010800Z 18005KT 20SM SKC 10/10 A3000 RMK SLP167
1:00 am
V
54 °F 20 mi - 170° 170° 6 kt METAR CYEG 010700Z 17006KT 20SM SKC 12/11 A3001 RMK SLP169 DENSITY ALT 2500FT
12:00 am
V
55 °F 20 mi - 170° 170° 5 kt METAR CYEG 010600Z 17005KT 20SM SKC 13/11 A3002 RMK SLP171 DENSITY ALT 2600FT

30 juin 2022

Temps Code Temps Temp. Vue Base cloud Vent METAR/SPECI
11:00 pm
V
59 °F 20 mi - 160° 160° 7 kt METAR CYEG 010500Z 16007KT 20SM FEW240 15/11 A3003 RMK CI1 SLP173 DENSITY ALT 2800FT
10:00 pm
V
61 °F 20 mi - 180° 180° 3 kt METAR CYEG 010400Z 18003KT 20SM SCT240 16/12 A3003 RMK CI3 SLP174 DENSITY ALT 3000FT
9:00 pm
V
66 °F 20 mi - 180° 180° 2 kt METAR CYEG 010300Z 18002KT 20SM FEW240 19/14 A3003 RMK CI2 SLP173 DENSITY ALT 3300FT
8:00 pm
V
70 °F 20 mi - Var Var 2 kt METAR CYEG 010200Z VRB02KT 20SM FEW052 FEW240 21/13 A3004 RMK CU1CI1 CU TR SLP177 DENSITY ALT 3500FT
7:00 pm
V
72 °F 20 mi - 300° 300° 3 kt METAR CYEG 010100Z 30003KT 250V320 20SM FEW052TCU FEW140 SCT240 22/12 A3005 RMK TCU1AC1CI1 SLP182 DENSITY ALT 3600FT
6:00 pm
V
72 °F 20 mi - 340° 340° 6 kt METAR CYEG 010000Z 34006KT 20SM FEW052 SCT240 22/11 A3005 RMK CU2CI1 SLP183 DENSITY ALT 3600FT
5:00 pm
V
72 °F 20 mi - 340° 340° 9 kt METAR CYEG 302300Z 34009KT 20SM SCT052TCU SCT240 22/10 A3006 RMK TCU3CI1 SLP186 DENSITY ALT 3600FT
4:00 pm
V
72 °F 20 mi - 350° 350° 8 kt METAR CYEG 302200Z 35008KT 300V360 20SM SCT041TCU SCT240 22/11 A3006 RMK TCU3CI1 SLP187 DENSITY ALT 3600FT
3:05 pm
V
68 °F 20 mi 8.500 ft 350° 350° 4 kt METAR CYEG 302105Z 35004KT 310V020 20SM VCSH SCT041TCU BKN085 20/13 A3007 RMK TCU4ACC1 SLP190 DENSITY ALT 3400FT
2:34 pm
V
68 °F 15 mi 4.200 ft 280° 280° 4 kt METAR CYEG 302034Z CCA 28004KT 15SM -SHRA BKN042TCU 20/13 A3007 RMK TCU7 SLP190 DENSITY ALT 3300FT
2:00 pm
V
68 °F 20 mi 4.100 ft 320° 320° 8 kt METAR CYEG 302000Z 32008KT 20SM BKN041TCU 20/11 A3007 RMK TCU7 SLP189 DENSITY ALT 3400FT
1:00 pm
V
70 °F 20 mi 4.100 ft 300° 300° 11 kt METAR CYEG 301900Z 30011KT 270V350 20SM BKN041TCU BKN230 21/12 A3007 RMK TCU6CI1 CI TR SLP191 DENSITY ALT 3500FT
12:00 pm
V
68 °F 20 mi 23.000 ft 300° 300° 5 kt METAR CYEG 301800Z 30005KT 260V330 20SM SCT024TCU BKN230 20/13 A3008 RMK TCU4CI1 SLP194 DENSITY ALT 3400FT
11:00 am
V
66 °F 20 mi 24.000 ft 310° 310° 6 kt METAR CYEG 301700Z 31006KT 250V320 20SM SCT024 SCT073 BKN240 19/13 A3008 RMK CU3AC1CI1 SLP193 DENSITY ALT 3200FT
Données plus anciennes

Télécharge notre application

Un accès facile à toute la météo aéronautique sur ton téléphone portable et ta tablette.
Avec de nombreuses fonctionnalités non disponibles sur le site Web, comme la prise en charge hors ligne et une liste personnelle d'aéroports.

Nous et des tiers suivons ton comportement sur Internet sur notre site Web à l'aide de cookies. Si tu continues, nous supposons que tu acceptes notre politique en matière de cookies. Apprendre plus